Silverville, Indiana
Current Conditions -  °F | °C
As of 2:15 PM on Saturday 25 Oct 2014 (Local Time) from KDCY Reporting Station
Haze Haze  
Wind Chill: 74°   Ceiling: Unl
Heat Index: 74°   Visibility: 4mi
Dew Point: 58°   Wind: 6mph
Humidity: 58%   Direction: 290°WNW
Pressure: 29.97"   Gusts: NA
Location:  38.7478°N, 86.6215°W
Report Text: KDCY 251815Z AUTO 29005KT 4SM HZ CLR 23/14 A2997 RMK AO2 T02320144
Loading
Personal Weather Stations






























Interactive Weather Map
Tropical Storm Tracking
New forecast layout! Learn more

10-Day Weather Forecast

Advertisements
Track Severe Weather on mobile